Rootstown, Ohio
Current Conditions -  °F | °C
As of 3:58 PM on Saturday 25 Oct 2014 (Local Time) from KPOV Reporting Station
Scattered Clouds Scattered Clouds  
Wind Chill: 68°   Ceiling: Unl
Heat Index: 68°   Visibility: 10mi
Dew Point: 47°   Wind: 15mph
Humidity: 48%   Direction: 260°W
Pressure: 29.75"   Gusts: 21mph
Location:  41.1°N, 81.24°W
Report Text: KPOV 251958Z AUTO 26013G18KT 10SM SCT048 20/09 A2975 RMK AO2 T01990086
Loading
Personal Weather Stations






























Interactive Weather Map
Tropical Storm Tracking
New forecast layout! Learn more

10-Day Weather Forecast

Advertisements
Track Severe Weather on mobile